createdAt,value
2023-02-06T00:01:53.732Z,5
2023-02-06T00:07:53.754Z,4
2023-02-06T00:13:53.712Z,4
2023-02-06T00:19:53.731Z,3
2023-02-06T00:25:53.711Z,3
2023-02-06T00:31:53.712Z,3
2023-02-06T00:37:53.754Z,3
2023-02-06T00:43:53.708Z,3
2023-02-06T00:49:53.715Z,3
2023-02-06T00:55:53.738Z,4
2023-02-06T01:01:53.741Z,4
2023-02-06T01:07:53.695Z,4
2023-02-06T01:13:53.724Z,4
2023-02-06T01:19:53.705Z,5
2023-02-06T01:25:53.746Z,5
2023-02-06T01:31:53.751Z,5
2023-02-06T01:37:53.700Z,5
2023-02-06T01:43:53.703Z,6
2023-02-06T01:49:53.702Z,6
2023-02-06T01:55:53.694Z,6
2023-02-06T02:01:53.736Z,5
2023-02-06T02:07:53.732Z,5
2023-02-06T02:13:53.687Z,4
2023-02-06T02:19:53.697Z,5
2023-02-06T02:25:53.726Z,5
2023-02-06T02:31:53.681Z,4
2023-02-06T02:37:53.702Z,5
2023-02-06T02:43:53.708Z,5
2023-02-06T02:49:53.670Z,5
2023-02-06T02:55:53.684Z,5
2023-02-06T03:01:53.715Z,4
2023-02-06T03:07:53.731Z,5
2023-02-06T03:13:53.677Z,4
2023-02-06T03:19:53.690Z,4
2023-02-06T03:25:53.701Z,4
2023-02-06T03:31:53.740Z,4
2023-02-06T03:37:53.734Z,4
2023-02-06T03:43:53.694Z,5
2023-02-06T03:49:53.696Z,5
2023-02-06T03:55:53.763Z,6
2023-02-06T04:01:53.686Z,6
2023-02-06T04:07:53.702Z,5
2023-02-06T04:13:53.702Z,6
2023-02-06T04:19:53.691Z,7
2023-02-06T04:25:53.702Z,6
2023-02-06T04:31:53.700Z,7
2023-02-06T04:37:53.701Z,8
2023-02-06T04:43:53.681Z,7
2023-02-06T04:49:53.709Z,8
2023-02-06T04:55:53.676Z,7
2023-02-06T05:01:53.699Z,8
2023-02-06T05:07:53.711Z,8
2023-02-06T05:13:53.676Z,8
2023-02-06T05:19:53.676Z,8
2023-02-06T05:25:53.853Z,8
2023-02-06T05:31:53.819Z,8
2023-02-06T05:37:53.677Z,9
2023-02-06T05:43:53.693Z,9
2023-02-06T05:49:53.653Z,8
2023-02-06T05:55:53.660Z,8
2023-02-06T06:01:53.687Z,10
2023-02-06T06:07:53.656Z,9
2023-02-06T06:13:53.661Z,10
2023-02-06T06:19:53.755Z,10
2023-02-06T06:25:53.675Z,10
2023-02-06T06:31:53.745Z,10
2023-02-06T06:37:53.686Z,11
2023-02-06T06:43:53.666Z,12
2023-02-06T06:49:53.642Z,12
2023-02-06T06:55:53.690Z,11
2023-02-06T07:01:53.662Z,11
2023-02-06T07:07:53.661Z,12
2023-02-06T07:13:53.682Z,11
2023-02-06T07:19:53.659Z,12
2023-02-06T07:25:53.643Z,14
2023-02-06T07:31:53.767Z,12
2023-02-06T07:37:53.677Z,23
2023-02-06T07:43:53.647Z,15
2023-02-06T07:49:53.698Z,10
2023-02-06T07:55:53.629Z,12
2023-02-06T08:01:53.645Z,26
2023-02-06T08:07:53.679Z,13
2023-02-06T08:13:53.637Z,11
2023-02-06T08:19:53.679Z,12
2023-02-06T08:25:53.837Z,13
2023-02-06T08:31:53.744Z,13
2023-02-06T08:37:53.671Z,12
2023-02-06T08:43:53.653Z,13
2023-02-06T08:49:53.639Z,12
2023-02-06T08:55:53.820Z,11
2023-02-06T09:01:53.672Z,12
2023-02-06T09:07:53.644Z,11
2023-02-06T09:13:53.627Z,12
2023-02-06T09:19:53.710Z,12
2023-02-06T09:25:53.609Z,12
2023-02-06T09:31:53.631Z,13
2023-02-06T09:37:53.672Z,11
2023-02-06T09:43:53.616Z,13
2023-02-06T09:49:53.635Z,12
2023-02-06T09:55:53.646Z,12
2023-02-06T10:01:53.640Z,10
2023-02-06T10:07:53.634Z,11
2023-02-06T10:13:53.650Z,11
2023-02-06T10:19:53.628Z,11
2023-02-06T10:25:53.611Z,12
2023-02-06T10:31:53.722Z,12
2023-02-06T10:37:53.638Z,11
2023-02-06T10:43:53.619Z,9
2023-02-06T10:49:53.655Z,9
2023-02-06T10:55:54.004Z,10
2023-02-06T11:01:53.701Z,10
2023-02-06T11:07:53.801Z,9
2023-02-06T11:13:53.740Z,9
2023-02-06T11:19:53.619Z,10
2023-02-06T11:25:53.708Z,9
2023-02-06T11:31:53.812Z,8
2023-02-06T11:37:53.721Z,9
2023-02-06T11:43:53.657Z,9
2023-02-06T11:49:53.629Z,9
2023-02-06T11:55:53.620Z,11
2023-02-06T12:01:53.693Z,9
2023-02-06T12:07:53.650Z,8
2023-02-06T12:13:53.624Z,9
2023-02-06T12:19:53.640Z,11
2023-02-06T12:25:53.622Z,9
2023-02-06T12:31:53.740Z,10
2023-02-06T12:37:53.632Z,8
2023-02-06T12:43:53.605Z,8
2023-02-06T12:49:53.616Z,8
2023-02-06T12:55:53.888Z,9
2023-02-06T13:01:53.631Z,8
2023-02-06T13:07:53.635Z,9
2023-02-06T13:13:53.646Z,9
2023-02-06T13:19:53.624Z,9
2023-02-06T13:25:53.667Z,9
2023-02-06T13:31:53.733Z,9
2023-02-06T13:37:53.618Z,10
2023-02-06T13:43:53.601Z,8
2023-02-06T13:49:53.637Z,9
2023-02-06T13:55:53.597Z,10
2023-02-06T14:01:53.690Z,9
2023-02-06T14:07:53.674Z,12
2023-02-06T14:13:53.619Z,10
2023-02-06T14:19:53.606Z,9
2023-02-06T14:25:53.622Z,7
2023-02-06T14:31:53.703Z,7
2023-02-06T14:37:53.661Z,3
2023-02-06T14:43:53.662Z,3
2023-02-06T14:49:53.677Z,3
2023-02-06T14:55:53.616Z,3
2023-02-06T15:02:03.988Z,2
2023-02-06T15:07:53.615Z,2
2023-02-06T15:13:53.583Z,4
2023-02-06T15:19:53.628Z,3
2023-02-06T15:25:53.661Z,3
2023-02-06T15:31:53.612Z,4
2023-02-06T15:37:53.639Z,3
2023-02-06T15:43:53.572Z,3
2023-02-06T15:49:53.588Z,4
2023-02-06T15:55:53.606Z,3
2023-02-06T16:01:53.675Z,3
2023-02-06T16:08:03.876Z,3
2023-02-06T16:13:53.640Z,3
2023-02-06T16:19:53.580Z,3
2023-02-06T16:25:53.590Z,3
2023-02-06T16:31:53.719Z,3
2023-02-06T16:37:53.594Z,3
2023-02-06T16:43:53.576Z,3
2023-02-06T16:49:53.624Z,4
2023-02-06T16:55:53.557Z,3
2023-02-06T17:01:53.591Z,4
2023-02-06T17:07:53.609Z,5
2023-02-06T17:13:53.627Z,5
2023-02-06T17:19:53.599Z,7
2023-02-06T17:25:53.591Z,5
2023-02-06T17:31:53.617Z,6
2023-02-06T17:37:53.594Z,6
2023-02-06T17:43:53.626Z,6
2023-02-06T17:49:53.588Z,6
2023-02-06T17:55:53.608Z,6
2023-02-06T18:01:53.718Z,6
2023-02-06T18:07:53.589Z,8
2023-02-06T18:13:53.835Z,8
2023-02-06T18:19:53.630Z,10
2023-02-06T18:25:53.592Z,8
2023-02-06T18:31:53.607Z,7
2023-02-06T18:37:53.587Z,10
2023-02-06T18:43:53.568Z,8
2023-02-06T18:49:53.578Z,7
2023-02-06T18:55:53.587Z,8
2023-02-06T19:01:53.575Z,10
2023-02-06T19:07:53.600Z,9
2023-02-06T19:13:53.960Z,7
2023-02-06T19:19:53.540Z,8
2023-02-06T19:25:53.552Z,7
2023-02-06T19:31:53.837Z,6
2023-02-06T19:37:53.803Z,10
2023-02-06T19:43:53.600Z,7
2023-02-06T19:49:53.671Z,7
2023-02-06T19:55:53.548Z,8
2023-02-06T20:01:53.540Z,7
2023-02-06T20:07:53.569Z,8
2023-02-06T20:13:53.558Z,7
2023-02-06T20:19:53.530Z,10
2023-02-06T20:25:53.555Z,8
2023-02-06T20:31:53.712Z,6
2023-02-06T20:37:53.545Z,7
2023-02-06T20:43:53.569Z,7
2023-02-06T20:49:53.553Z,9
2023-02-06T20:55:53.563Z,7
2023-02-06T21:01:53.561Z,7
2023-02-06T21:07:53.521Z,7
2023-02-06T21:13:53.522Z,8
2023-02-06T21:20:03.872Z,7
2023-02-06T21:25:53.533Z,8
2023-02-06T21:32:07.255Z,10
2023-02-06T21:37:53.572Z,16
2023-02-06T21:43:53.520Z,12
2023-02-06T21:49:53.532Z,13
2023-02-06T21:55:53.570Z,21
2023-02-06T22:01:53.571Z,22
2023-02-06T22:07:53.514Z,9
2023-02-06T22:13:53.540Z,10
2023-02-06T22:19:53.522Z,10
2023-02-06T22:25:53.510Z,10
2023-02-06T22:31:53.546Z,10
2023-02-06T22:37:53.515Z,9
2023-02-06T22:43:53.515Z,9
2023-02-06T22:49:53.535Z,9
2023-02-06T22:55:53.552Z,10
2023-02-06T23:01:53.529Z,10
2023-02-06T23:07:53.537Z,9
2023-02-06T23:13:53.491Z,13
2023-02-06T23:19:53.522Z,11
2023-02-06T23:25:53.545Z,8
2023-02-06T23:31:53.577Z,8
2023-02-06T23:37:53.508Z,8
2023-02-06T23:43:53.532Z,7
2023-02-06T23:49:53.473Z,7
2023-02-06T23:55:53.482Z,6
